sensor_id;sensor_type;location;lat;lon;timestamp;P1;durP1;ratioP1;P2;durP2;ratioP2
62957;SDS011;49056;48.352;10.926;2023-02-15T00:02:52;2.45;;;1.37;;
62957;SDS011;49056;48.352;10.926;2023-02-15T00:08:12;2.65;;;1.58;;
62957;SDS011;49056;48.352;10.926;2023-02-15T00:13:33;2.87;;;1.40;;
62957;SDS011;49056;48.352;10.926;2023-02-15T00:18:55;2.15;;;1.42;;
62957;SDS011;49056;48.352;10.926;2023-02-15T00:24:16;2.72;;;1.52;;
62957;SDS011;49056;48.352;10.926;2023-02-15T00:29:37;2.10;;;1.55;;
62957;SDS011;49056;48.352;10.926;2023-02-15T00:34:57;2.23;;;1.07;;
62957;SDS011;49056;48.352;10.926;2023-02-15T00:40:18;2.47;;;1.40;;
62957;SDS011;49056;48.352;10.926;2023-02-15T00:45:38;2.70;;;1.37;;
62957;SDS011;49056;48.352;10.926;2023-02-15T00:50:59;3.00;;;1.95;;
62957;SDS011;49056;48.352;10.926;2023-02-15T00:56:19;2.35;;;1.30;;
62957;SDS011;49056;48.352;10.926;2023-02-15T01:01:40;2.87;;;1.40;;
62957;SDS011;49056;48.352;10.926;2023-02-15T01:07:00;2.10;;;1.15;;
62957;SDS011;49056;48.352;10.926;2023-02-15T01:12:22;1.90;;;1.30;;
62957;SDS011;49056;48.352;10.926;2023-02-15T01:17:42;1.50;;;1.10;;
62957;SDS011;49056;48.352;10.926;2023-02-15T01:23:05;2.60;;;1.20;;
62957;SDS011;49056;48.352;10.926;2023-02-15T01:28:26;3.65;;;1.70;;
62957;SDS011;49056;48.352;10.926;2023-02-15T01:33:46;2.30;;;1.55;;
62957;SDS011;49056;48.352;10.926;2023-02-15T01:39:07;3.03;;;1.67;;
62957;SDS011;49056;48.352;10.926;2023-02-15T01:55:42;2.60;;;1.40;;
62957;SDS011;49056;48.352;10.926;2023-02-15T02:01:04;2.55;;;1.37;;
62957;SDS011;49056;48.352;10.926;2023-02-15T02:06:25;2.53;;;1.35;;
62957;SDS011;49056;48.352;10.926;2023-02-15T02:11:46;2.67;;;1.55;;
62957;SDS011;49056;48.352;10.926;2023-02-15T02:17:13;2.55;;;1.40;;
62957;SDS011;49056;48.352;10.926;2023-02-15T02:44:26;3.08;;;1.55;;
62957;SDS011;49056;48.352;10.926;2023-02-15T02:49:51;1.65;;;1.20;;
62957;SDS011;49056;48.352;10.926;2023-02-15T03:06:39;2.05;;;1.45;;
62957;SDS011;49056;48.352;10.926;2023-02-15T03:12:01;2.65;;;1.50;;
62957;SDS011;49056;48.352;10.926;2023-02-15T03:17:23;1.85;;;1.17;;
62957;SDS011;49056;48.352;10.926;2023-02-15T03:22:49;1.87;;;1.20;;
62957;SDS011;49056;48.352;10.926;2023-02-15T03:28:12;2.60;;;1.25;;
62957;SDS011;49056;48.352;10.926;2023-02-15T03:33:33;2.12;;;1.20;;
62957;SDS011;49056;48.352;10.926;2023-02-15T03:44:22;2.85;;;1.73;;
62957;SDS011;49056;48.352;10.926;2023-02-15T03:49:46;2.30;;;1.23;;
62957;SDS011;49056;48.352;10.926;2023-02-15T03:55:07;3.03;;;1.50;;
62957;SDS011;49056;48.352;10.926;2023-02-15T04:00:28;2.55;;;1.37;;
62957;SDS011;49056;48.352;10.926;2023-02-15T04:06:08;1.55;;;1.17;;
62957;SDS011;49056;48.352;10.926;2023-02-15T04:11:30;2.25;;;1.08;;
62957;SDS011;49056;48.352;10.926;2023-02-15T04:16:50;2.67;;;1.60;;
62957;SDS011;49056;48.352;10.926;2023-02-15T04:22:10;1.87;;;1.30;;
62957;SDS011;49056;48.352;10.926;2023-02-15T04:27:51;2.62;;;1.50;;
62957;SDS011;49056;48.352;10.926;2023-02-15T04:33:11;1.65;;;0.85;;
62957;SDS011;49056;48.352;10.926;2023-02-15T04:38:32;2.10;;;1.33;;
62957;SDS011;49056;48.352;10.926;2023-02-15T04:43:52;1.58;;;1.23;;
62957;SDS011;49056;48.352;10.926;2023-02-15T04:49:12;2.87;;;1.30;;
62957;SDS011;49056;48.352;10.926;2023-02-15T04:54:33;2.25;;;1.37;;
62957;SDS011;49056;48.352;10.926;2023-02-15T04:59:53;3.00;;;1.40;;
62957;SDS011;49056;48.352;10.926;2023-02-15T05:05:13;3.13;;;1.67;;
62957;SDS011;49056;48.352;10.926;2023-02-15T05:10:35;2.35;;;1.40;;
62957;SDS011;49056;48.352;10.926;2023-02-15T05:15:55;2.58;;;1.50;;
62957;SDS011;49056;48.352;10.926;2023-02-15T05:21:15;2.25;;;1.17;;
62957;SDS011;49056;48.352;10.926;2023-02-15T05:26:36;2.33;;;1.52;;
62957;SDS011;49056;48.352;10.926;2023-02-15T05:32:15;1.95;;;0.85;;
62957;SDS011;49056;48.352;10.926;2023-02-15T05:37:35;2.70;;;1.33;;
62957;SDS011;49056;48.352;10.926;2023-02-15T05:42:56;1.33;;;0.90;;
62957;SDS011;49056;48.352;10.926;2023-02-15T05:48:17;2.28;;;1.20;;
62957;SDS011;49056;48.352;10.926;2023-02-15T05:53:39;1.98;;;1.33;;
62957;SDS011;49056;48.352;10.926;2023-02-15T05:58:59;1.87;;;0.95;;
62957;SDS011;49056;48.352;10.926;2023-02-15T06:04:20;2.90;;;1.62;;
62957;SDS011;49056;48.352;10.926;2023-02-15T06:09:40;2.15;;;1.45;;
62957;SDS011;49056;48.352;10.926;2023-02-15T06:15:00;2.33;;;1.27;;
62957;SDS011;49056;48.352;10.926;2023-02-15T06:20:21;2.87;;;1.20;;
62957;SDS011;49056;48.352;10.926;2023-02-15T06:25:41;1.73;;;1.20;;
62957;SDS011;49056;48.352;10.926;2023-02-15T06:31:01;1.98;;;1.45;;
62957;SDS011;49056;48.352;10.926;2023-02-15T06:36:22;2.35;;;1.27;;
62957;SDS011;49056;48.352;10.926;2023-02-15T06:41:42;2.15;;;1.27;;
62957;SDS011;49056;48.352;10.926;2023-02-15T06:47:02;2.90;;;1.40;;
62957;SDS011;49056;48.352;10.926;2023-02-15T06:52:23;2.87;;;1.40;;
62957;SDS011;49056;48.352;10.926;2023-02-15T06:57:43;2.47;;;1.20;;
62957;SDS011;49056;48.352;10.926;2023-02-15T07:03:03;1.87;;;1.20;;
62957;SDS011;49056;48.352;10.926;2023-02-15T07:08:24;2.03;;;1.17;;
62957;SDS011;49056;48.352;10.926;2023-02-15T07:13:44;2.10;;;1.25;;
62957;SDS011;49056;48.352;10.926;2023-02-15T07:19:05;2.60;;;1.40;;
62957;SDS011;49056;48.352;10.926;2023-02-15T07:24:25;3.55;;;1.30;;
62957;SDS011;49056;48.352;10.926;2023-02-15T07:29:45;2.30;;;1.17;;
62957;SDS011;49056;48.352;10.926;2023-02-15T07:35:06;1.65;;;1.20;;
62957;SDS011;49056;48.352;10.926;2023-02-15T07:40:27;2.55;;;1.42;;
62957;SDS011;49056;48.352;10.926;2023-02-15T07:45:47;3.50;;;1.63;;
62957;SDS011;49056;48.352;10.926;2023-02-15T07:51:08;1.40;;;0.85;;
62957;SDS011;49056;48.352;10.926;2023-02-15T07:56:29;2.15;;;1.20;;
62957;SDS011;49056;48.352;10.926;2023-02-15T08:01:49;2.50;;;1.50;;
62957;SDS011;49056;48.352;10.926;2023-02-15T08:07:09;2.22;;;1.35;;
62957;SDS011;49056;48.352;10.926;2023-02-15T08:12:30;1.75;;;1.30;;
62957;SDS011;49056;48.352;10.926;2023-02-15T08:17:50;2.45;;;1.73;;
62957;SDS011;49056;48.352;10.926;2023-02-15T08:23:10;2.90;;;1.73;;
62957;SDS011;49056;48.352;10.926;2023-02-15T08:28:31;1.95;;;1.27;;
62957;SDS011;49056;48.352;10.926;2023-02-15T08:33:52;3.90;;;1.90;;
62957;SDS011;49056;48.352;10.926;2023-02-15T08:39:13;2.20;;;1.30;;
62957;SDS011;49056;48.352;10.926;2023-02-15T08:44:34;1.87;;;1.35;;
62957;SDS011;49056;48.352;10.926;2023-02-15T08:49:54;2.50;;;1.55;;
62957;SDS011;49056;48.352;10.926;2023-02-15T08:55:15;2.37;;;1.40;;
62957;SDS011;49056;48.352;10.926;2023-02-15T09:00:36;2.00;;;1.40;;
62957;SDS011;49056;48.352;10.926;2023-02-15T09:05:57;2.03;;;1.10;;
62957;SDS011;49056;48.352;10.926;2023-02-15T09:11:19;2.50;;;1.80;;
62957;SDS011;49056;48.352;10.926;2023-02-15T09:16:43;3.28;;;1.58;;
62957;SDS011;49056;48.352;10.926;2023-02-15T09:22:08;2.50;;;1.33;;
62957;SDS011;49056;48.352;10.926;2023-02-15T09:27:29;2.67;;;1.30;;
62957;SDS011;49056;48.352;10.926;2023-02-15T09:32:49;2.95;;;1.23;;
62957;SDS011;49056;48.352;10.926;2023-02-15T09:38:09;2.10;;;1.25;;
62957;SDS011;49056;48.352;10.926;2023-02-15T09:43:38;1.37;;;1.15;;
62957;SDS011;49056;48.352;10.926;2023-02-15T09:49:09;2.35;;;1.23;;
62957;SDS011;49056;48.352;10.926;2023-02-15T09:54:54;2.58;;;1.50;;
62957;SDS011;49056;48.352;10.926;2023-02-15T10:11:14;1.85;;;1.12;;
62957;SDS011;49056;48.352;10.926;2023-02-15T10:22:27;2.70;;;1.33;;
62957;SDS011;49056;48.352;10.926;2023-02-15T10:27:51;1.85;;;1.08;;
62957;SDS011;49056;48.352;10.926;2023-02-15T10:33:24;2.30;;;1.33;;
62957;SDS011;49056;48.352;10.926;2023-02-15T10:55:05;2.80;;;1.85;;
62957;SDS011;49056;48.352;10.926;2023-02-15T11:00:33;2.58;;;1.30;;
62957;SDS011;49056;48.352;10.926;2023-02-15T11:06:03;3.42;;;1.75;;
62957;SDS011;49056;48.352;10.926;2023-02-15T11:11:29;3.83;;;2.40;;
62957;SDS011;49056;48.352;10.926;2023-02-15T11:16:51;2.47;;;1.37;;
62957;SDS011;49056;48.352;10.926;2023-02-15T11:22:13;2.40;;;1.75;;
62957;SDS011;49056;48.352;10.926;2023-02-15T11:27:34;3.75;;;1.90;;
62957;SDS011;49056;48.352;10.926;2023-02-15T11:32:58;2.75;;;1.70;;
62957;SDS011;49056;48.352;10.926;2023-02-15T11:38:22;3.50;;;1.95;;
62957;SDS011;49056;48.352;10.926;2023-02-15T11:43:46;3.30;;;1.15;;
62957;SDS011;49056;48.352;10.926;2023-02-15T11:54:50;2.72;;;1.50;;
62957;SDS011;49056;48.352;10.926;2023-02-15T12:05:37;3.03;;;1.77;;
62957;SDS011;49056;48.352;10.926;2023-02-15T12:11:02;1.73;;;1.30;;
62957;SDS011;49056;48.352;10.926;2023-02-15T12:16:24;2.78;;;1.85;;
62957;SDS011;49056;48.352;10.926;2023-02-15T12:21:48;2.95;;;1.58;;
62957;SDS011;49056;48.352;10.926;2023-02-15T12:27:16;3.37;;;1.80;;
62957;SDS011;49056;48.352;10.926;2023-02-15T12:32:47;2.97;;;1.95;;
62957;SDS011;49056;48.352;10.926;2023-02-15T12:43:32;2.03;;;1.27;;
62957;SDS011;49056;48.352;10.926;2023-02-15T12:54:34;2.60;;;1.58;;
62957;SDS011;49056;48.352;10.926;2023-02-15T13:05:32;3.43;;;2.20;;
62957;SDS011;49056;48.352;10.926;2023-02-15T13:10:54;5.72;;;2.75;;
62957;SDS011;49056;48.352;10.926;2023-02-15T13:16:15;6.70;;;1.80;;
62957;SDS011;49056;48.352;10.926;2023-02-15T13:21:40;4.35;;;1.90;;
62957;SDS011;49056;48.352;10.926;2023-02-15T13:27:01;3.15;;;1.87;;
62957;SDS011;49056;48.352;10.926;2023-02-15T13:32:26;3.28;;;1.75;;
62957;SDS011;49056;48.352;10.926;2023-02-15T14:00:01;4.57;;;2.30;;
62957;SDS011;49056;48.352;10.926;2023-02-15T14:05:40;2.70;;;1.77;;
62957;SDS011;49056;48.352;10.926;2023-02-15T14:16:35;2.95;;;1.62;;
62957;SDS011;49056;48.352;10.926;2023-02-15T14:22:06;4.12;;;2.42;;
62957;SDS011;49056;48.352;10.926;2023-02-15T14:27:41;2.70;;;1.30;;
62957;SDS011;49056;48.352;10.926;2023-02-15T14:44:38;3.30;;;1.80;;
62957;SDS011;49056;48.352;10.926;2023-02-15T14:50:08;3.85;;;2.05;;
62957;SDS011;49056;48.352;10.926;2023-02-15T14:55:40;4.28;;;2.00;;
62957;SDS011;49056;48.352;10.926;2023-02-15T15:01:05;3.30;;;2.03;;
62957;SDS011;49056;48.352;10.926;2023-02-15T15:06:30;3.03;;;1.98;;
62957;SDS011;49056;48.352;10.926;2023-02-15T15:11:51;3.15;;;2.03;;
62957;SDS011;49056;48.352;10.926;2023-02-15T15:17:13;3.37;;;2.05;;
62957;SDS011;49056;48.352;10.926;2023-02-15T15:50:59;3.37;;;2.15;;
62957;SDS011;49056;48.352;10.926;2023-02-15T15:56:21;3.70;;;2.08;;
62957;SDS011;49056;48.352;10.926;2023-02-15T16:01:43;4.10;;;2.03;;
62957;SDS011;49056;48.352;10.926;2023-02-15T16:12:53;3.40;;;1.75;;
62957;SDS011;49056;48.352;10.926;2023-02-15T16:18:15;3.45;;;1.92;;
62957;SDS011;49056;48.352;10.926;2023-02-15T16:28:58;4.22;;;2.28;;
62957;SDS011;49056;48.352;10.926;2023-02-15T16:34:18;4.63;;;2.00;;
62957;SDS011;49056;48.352;10.926;2023-02-15T16:39:42;3.28;;;1.90;;
62957;SDS011;49056;48.352;10.926;2023-02-15T16:45:05;3.53;;;2.40;;
62957;SDS011;49056;48.352;10.926;2023-02-15T16:50:34;4.65;;;2.50;;
62957;SDS011;49056;48.352;10.926;2023-02-15T16:55:59;5.20;;;2.30;;
62957;SDS011;49056;48.352;10.926;2023-02-15T17:01:22;3.97;;;2.00;;
62957;SDS011;49056;48.352;10.926;2023-02-15T17:06:48;3.60;;;2.15;;
62957;SDS011;49056;48.352;10.926;2023-02-15T17:18:00;3.42;;;1.85;;
62957;SDS011;49056;48.352;10.926;2023-02-15T17:23:40;4.70;;;2.37;;
62957;SDS011;49056;48.352;10.926;2023-02-15T17:29:09;4.80;;;2.58;;
62957;SDS011;49056;48.352;10.926;2023-02-15T17:34:44;3.92;;;2.10;;
62957;SDS011;49056;48.352;10.926;2023-02-15T17:45:48;3.58;;;2.42;;
62957;SDS011;49056;48.352;10.926;2023-02-15T17:51:11;4.12;;;2.80;;
62957;SDS011;49056;48.352;10.926;2023-02-15T17:56:32;3.83;;;2.20;;
62957;SDS011;49056;48.352;10.926;2023-02-15T18:01:53;5.45;;;2.58;;
62957;SDS011;49056;48.352;10.926;2023-02-15T18:07:32;3.80;;;2.37;;
62957;SDS011;49056;48.352;10.926;2023-02-15T18:13:10;6.53;;;2.92;;
62957;SDS011;49056;48.352;10.926;2023-02-15T18:18:31;4.73;;;3.20;;
62957;SDS011;49056;48.352;10.926;2023-02-15T18:23:52;5.53;;;2.72;;
62957;SDS011;49056;48.352;10.926;2023-02-15T18:29:12;4.10;;;2.47;;
62957;SDS011;49056;48.352;10.926;2023-02-15T18:34:34;4.30;;;2.10;;
62957;SDS011;49056;48.352;10.926;2023-02-15T18:39:56;4.28;;;2.75;;
62957;SDS011;49056;48.352;10.926;2023-02-15T18:45:21;3.92;;;2.78;;
62957;SDS011;49056;48.352;10.926;2023-02-15T18:56:04;4.25;;;2.47;;
62957;SDS011;49056;48.352;10.926;2023-02-15T19:01:24;4.87;;;3.00;;
62957;SDS011;49056;48.352;10.926;2023-02-15T19:06:47;4.32;;;2.58;;
62957;SDS011;49056;48.352;10.926;2023-02-15T19:12:09;3.95;;;2.78;;
62957;SDS011;49056;48.352;10.926;2023-02-15T19:17:30;4.43;;;2.75;;
62957;SDS011;49056;48.352;10.926;2023-02-15T19:22:50;4.70;;;2.83;;
62957;SDS011;49056;48.352;10.926;2023-02-15T19:28:15;5.25;;;2.78;;
62957;SDS011;49056;48.352;10.926;2023-02-15T19:33:36;4.70;;;2.97;;
62957;SDS011;49056;48.352;10.926;2023-02-15T19:38:56;4.67;;;3.87;;
62957;SDS011;49056;48.352;10.926;2023-02-15T19:44:17;6.25;;;2.87;;
62957;SDS011;49056;48.352;10.926;2023-02-15T19:49:37;3.92;;;2.83;;
62957;SDS011;49056;48.352;10.926;2023-02-15T19:54:57;5.40;;;3.12;;
62957;SDS011;49056;48.352;10.926;2023-02-15T20:00:19;5.28;;;3.08;;
62957;SDS011;49056;48.352;10.926;2023-02-15T20:05:41;4.07;;;2.90;;
62957;SDS011;49056;48.352;10.926;2023-02-15T20:11:01;3.75;;;2.33;;
62957;SDS011;49056;48.352;10.926;2023-02-15T20:16:22;4.95;;;2.72;;
62957;SDS011;49056;48.352;10.926;2023-02-15T20:21:45;4.82;;;2.75;;
62957;SDS011;49056;48.352;10.926;2023-02-15T20:27:08;3.78;;;2.67;;
62957;SDS011;49056;48.352;10.926;2023-02-15T20:32:29;4.95;;;3.17;;
62957;SDS011;49056;48.352;10.926;2023-02-15T20:37:50;6.50;;;3.00;;
62957;SDS011;49056;48.352;10.926;2023-02-15T20:43:13;5.22;;;3.08;;
62957;SDS011;49056;48.352;10.926;2023-02-15T20:48:34;5.62;;;3.50;;
62957;SDS011;49056;48.352;10.926;2023-02-15T20:53:54;4.37;;;2.87;;
62957;SDS011;49056;48.352;10.926;2023-02-15T21:04:37;4.07;;;2.78;;
62957;SDS011;49056;48.352;10.926;2023-02-15T21:09:58;4.87;;;3.03;;
62957;SDS011;49056;48.352;10.926;2023-02-15T21:15:23;4.43;;;2.87;;
62957;SDS011;49056;48.352;10.926;2023-02-15T21:20:45;4.18;;;2.70;;
62957;SDS011;49056;48.352;10.926;2023-02-15T21:26:08;4.20;;;2.90;;
62957;SDS011;49056;48.352;10.926;2023-02-15T21:31:30;5.22;;;3.00;;
62957;SDS011;49056;48.352;10.926;2023-02-15T21:36:51;3.70;;;2.67;;
62957;SDS011;49056;48.352;10.926;2023-02-15T21:42:11;3.90;;;2.80;;
62957;SDS011;49056;48.352;10.926;2023-02-15T21:47:50;3.97;;;2.53;;
62957;SDS011;49056;48.352;10.926;2023-02-15T21:53:12;4.20;;;2.80;;
62957;SDS011;49056;48.352;10.926;2023-02-15T21:58:34;4.22;;;2.83;;
62957;SDS011;49056;48.352;10.926;2023-02-15T22:03:56;4.45;;;2.90;;
62957;SDS011;49056;48.352;10.926;2023-02-15T22:09:21;5.03;;;2.78;;
62957;SDS011;49056;48.352;10.926;2023-02-15T22:14:42;4.82;;;2.58;;
62957;SDS011;49056;48.352;10.926;2023-02-15T22:20:04;4.57;;;2.55;;
62957;SDS011;49056;48.352;10.926;2023-02-15T22:25:31;4.37;;;3.05;;
62957;SDS011;49056;48.352;10.926;2023-02-15T22:30:51;4.90;;;3.17;;
62957;SDS011;49056;48.352;10.926;2023-02-15T22:36:32;4.62;;;2.35;;
62957;SDS011;49056;48.352;10.926;2023-02-15T22:41:52;4.32;;;2.33;;
62957;SDS011;49056;48.352;10.926;2023-02-15T22:47:18;5.20;;;2.70;;
62957;SDS011;49056;48.352;10.926;2023-02-15T22:52:39;4.37;;;2.80;;
62957;SDS011;49056;48.352;10.926;2023-02-15T22:57:59;4.17;;;2.90;;
62957;SDS011;49056;48.352;10.926;2023-02-15T23:03:21;4.65;;;2.28;;
62957;SDS011;49056;48.352;10.926;2023-02-15T23:08:42;5.30;;;3.05;;
62957;SDS011;49056;48.352;10.926;2023-02-15T23:14:03;4.60;;;2.35;;
62957;SDS011;49056;48.352;10.926;2023-02-15T23:19:23;4.70;;;2.83;;
62957;SDS011;49056;48.352;10.926;2023-02-15T23:24:45;3.72;;;2.95;;
62957;SDS011;49056;48.352;10.926;2023-02-15T23:30:12;3.87;;;2.70;;
62957;SDS011;49056;48.352;10.926;2023-02-15T23:35:33;3.78;;;2.62;;
62957;SDS011;49056;48.352;10.926;2023-02-15T23:40:54;4.75;;;2.80;;
62957;SDS011;49056;48.352;10.926;2023-02-15T23:51:55;4.10;;;2.97;;
62957;SDS011;49056;48.352;10.926;2023-02-15T23:57:15;5.60;;;2.60;;
